sensor_id;sensor_type;location;lat;lon;timestamp;temperature;humidity
27540;DHT22;15906;52.046;4.724;2023-07-31T00:00:40;17.20;99.90
27540;DHT22;15906;52.046;4.724;2023-07-31T00:03:05;17.20;99.90
27540;DHT22;15906;52.046;4.724;2023-07-31T00:05:31;17.20;99.90
27540;DHT22;15906;52.046;4.724;2023-07-31T00:07:56;17.20;99.90
27540;DHT22;15906;52.046;4.724;2023-07-31T00:10:22;17.20;99.90
27540;DHT22;15906;52.046;4.724;2023-07-31T00:12:47;17.30;99.90
27540;DHT22;15906;52.046;4.724;2023-07-31T00:15:14;17.10;99.90
27540;DHT22;15906;52.046;4.724;2023-07-31T00:17:39;17.20;99.90
27540;DHT22;15906;52.046;4.724;2023-07-31T00:20:05;17.20;99.90
27540;DHT22;15906;52.046;4.724;2023-07-31T00:22:31;17.20;99.90
27540;DHT22;15906;52.046;4.724;2023-07-31T00:24:57;17.10;99.90
27540;DHT22;15906;52.046;4.724;2023-07-31T00:27:23;17.10;99.90
27540;DHT22;15906;52.046;4.724;2023-07-31T00:29:49;17.10;99.90
27540;DHT22;15906;52.046;4.724;2023-07-31T00:32:15;17.00;99.90
27540;DHT22;15906;52.046;4.724;2023-07-31T00:34:40;17.20;99.90
27540;DHT22;15906;52.046;4.724;2023-07-31T00:37:06;17.20;99.90
27540;DHT22;15906;52.046;4.724;2023-07-31T00:39:33;17.10;99.90
27540;DHT22;15906;52.046;4.724;2023-07-31T00:41:59;17.10;99.90
27540;DHT22;15906;52.046;4.724;2023-07-31T00:44:25;17.10;99.90
27540;DHT22;15906;52.046;4.724;2023-07-31T00:46:50;17.00;99.90
27540;DHT22;15906;52.046;4.724;2023-07-31T00:49:16;17.00;99.90
27540;DHT22;15906;52.046;4.724;2023-07-31T00:51:41;17.00;99.90
27540;DHT22;15906;52.046;4.724;2023-07-31T00:54:07;17.00;99.90
27540;DHT22;15906;52.046;4.724;2023-07-31T00:56:33;17.00;99.90
27540;DHT22;15906;52.046;4.724;2023-07-31T00:58:59;17.10;99.90
27540;DHT22;15906;52.046;4.724;2023-07-31T01:01:24;17.00;99.90
27540;DHT22;15906;52.046;4.724;2023-07-31T01:03:51;17.00;99.90
27540;DHT22;15906;52.046;4.724;2023-07-31T01:06:36;17.00;99.90
27540;DHT22;15906;52.046;4.724;2023-07-31T01:09:10;17.10;99.90
27540;DHT22;15906;52.046;4.724;2023-07-31T01:11:48;17.00;99.90
27540;DHT22;15906;52.046;4.724;2023-07-31T01:14:15;17.00;99.90
27540;DHT22;15906;52.046;4.724;2023-07-31T01:16:41;17.00;99.90
27540;DHT22;15906;52.046;4.724;2023-07-31T01:19:08;17.00;99.90
27540;DHT22;15906;52.046;4.724;2023-07-31T01:24:23;17.00;99.90
27540;DHT22;15906;52.046;4.724;2023-07-31T01:26:57;17.00;99.90
27540;DHT22;15906;52.046;4.724;2023-07-31T01:32:02;16.90;99.90
27540;DHT22;15906;52.046;4.724;2023-07-31T01:34:29;16.90;99.90
27540;DHT22;15906;52.046;4.724;2023-07-31T01:36:56;16.90;99.90
27540;DHT22;15906;52.046;4.724;2023-07-31T01:39:23;16.80;99.90
27540;DHT22;15906;52.046;4.724;2023-07-31T01:41:49;16.80;99.90
27540;DHT22;15906;52.046;4.724;2023-07-31T01:44:14;16.80;99.90
27540;DHT22;15906;52.046;4.724;2023-07-31T01:46:40;16.80;99.90
27540;DHT22;15906;52.046;4.724;2023-07-31T01:49:06;16.80;99.90
27540;DHT22;15906;52.046;4.724;2023-07-31T01:51:32;16.80;99.90
27540;DHT22;15906;52.046;4.724;2023-07-31T01:54:01;16.90;99.90
27540;DHT22;15906;52.046;4.724;2023-07-31T01:56:26;16.90;99.90
27540;DHT22;15906;52.046;4.724;2023-07-31T01:58:52;16.90;99.90
27540;DHT22;15906;52.046;4.724;2023-07-31T02:01:17;16.90;99.90
27540;DHT22;15906;52.046;4.724;2023-07-31T02:03:43;16.90;99.90
27540;DHT22;15906;52.046;4.724;2023-07-31T02:06:08;17.00;99.90
27540;DHT22;15906;52.046;4.724;2023-07-31T02:08:34;16.90;99.90
27540;DHT22;15906;52.046;4.724;2023-07-31T02:10:59;16.80;99.90
27540;DHT22;15906;52.046;4.724;2023-07-31T02:13:25;16.90;99.90
27540;DHT22;15906;52.046;4.724;2023-07-31T02:15:50;16.90;99.90
27540;DHT22;15906;52.046;4.724;2023-07-31T02:18:16;16.90;99.90
27540;DHT22;15906;52.046;4.724;2023-07-31T02:20:42;16.80;99.90
27540;DHT22;15906;52.046;4.724;2023-07-31T02:23:07;16.80;99.90
27540;DHT22;15906;52.046;4.724;2023-07-31T02:25:33;16.80;99.90
27540;DHT22;15906;52.046;4.724;2023-07-31T02:27:58;16.90;99.90
27540;DHT22;15906;52.046;4.724;2023-07-31T02:30:24;16.90;99.90
27540;DHT22;15906;52.046;4.724;2023-07-31T02:32:49;16.90;99.90
27540;DHT22;15906;52.046;4.724;2023-07-31T02:35:15;16.90;99.90
27540;DHT22;15906;52.046;4.724;2023-07-31T02:37:42;16.80;99.90
27540;DHT22;15906;52.046;4.724;2023-07-31T02:40:08;16.80;99.90
27540;DHT22;15906;52.046;4.724;2023-07-31T02:42:34;16.80;99.90
27540;DHT22;15906;52.046;4.724;2023-07-31T02:44:59;16.80;99.90
27540;DHT22;15906;52.046;4.724;2023-07-31T02:47:25;16.90;99.90
27540;DHT22;15906;52.046;4.724;2023-07-31T02:49:50;16.80;99.90
27540;DHT22;15906;52.046;4.724;2023-07-31T02:52:16;16.80;99.90
27540;DHT22;15906;52.046;4.724;2023-07-31T02:54:41;16.80;99.90
27540;DHT22;15906;52.046;4.724;2023-07-31T02:57:07;16.70;99.90
27540;DHT22;15906;52.046;4.724;2023-07-31T02:59:32;16.70;99.90
27540;DHT22;15906;52.046;4.724;2023-07-31T03:01:58;16.70;99.90
27540;DHT22;15906;52.046;4.724;2023-07-31T03:04:23;16.70;99.90
27540;DHT22;15906;52.046;4.724;2023-07-31T03:06:49;16.70;99.90
27540;DHT22;15906;52.046;4.724;2023-07-31T03:09:14;16.60;99.90
27540;DHT22;15906;52.046;4.724;2023-07-31T03:11:40;16.70;99.90
27540;DHT22;15906;52.046;4.724;2023-07-31T03:14:05;16.60;99.90
27540;DHT22;15906;52.046;4.724;2023-07-31T03:16:31;16.60;99.90
27540;DHT22;15906;52.046;4.724;2023-07-31T03:18:56;16.70;99.90
27540;DHT22;15906;52.046;4.724;2023-07-31T03:21:22;16.60;99.90
27540;DHT22;15906;52.046;4.724;2023-07-31T03:23:48;16.60;99.90
27540;DHT22;15906;52.046;4.724;2023-07-31T03:26:14;16.60;99.90
27540;DHT22;15906;52.046;4.724;2023-07-31T03:28:39;16.60;99.90
27540;DHT22;15906;52.046;4.724;2023-07-31T03:31:05;16.70;99.90
27540;DHT22;15906;52.046;4.724;2023-07-31T03:33:30;16.70;99.90
27540;DHT22;15906;52.046;4.724;2023-07-31T03:35:56;16.70;99.90
27540;DHT22;15906;52.046;4.724;2023-07-31T03:38:22;16.70;99.90
27540;DHT22;15906;52.046;4.724;2023-07-31T03:40:47;16.70;99.90
27540;DHT22;15906;52.046;4.724;2023-07-31T03:43:14;16.70;99.90
27540;DHT22;15906;52.046;4.724;2023-07-31T03:45:40;16.80;99.90
27540;DHT22;15906;52.046;4.724;2023-07-31T03:48:06;16.80;99.90
27540;DHT22;15906;52.046;4.724;2023-07-31T03:50:33;16.70;99.90
27540;DHT22;15906;52.046;4.724;2023-07-31T03:52:58;16.70;99.90
27540;DHT22;15906;52.046;4.724;2023-07-31T03:55:24;16.70;99.90
27540;DHT22;15906;52.046;4.724;2023-07-31T03:57:49;16.70;99.90
27540;DHT22;15906;52.046;4.724;2023-07-31T04:00:15;16.80;99.90
27540;DHT22;15906;52.046;4.724;2023-07-31T04:02:41;16.80;99.90
27540;DHT22;15906;52.046;4.724;2023-07-31T04:05:07;16.80;99.90
27540;DHT22;15906;52.046;4.724;2023-07-31T04:07:32;16.80;99.90
27540;DHT22;15906;52.046;4.724;2023-07-31T04:09:58;16.70;99.90
27540;DHT22;15906;52.046;4.724;2023-07-31T04:12:23;16.70;99.90
27540;DHT22;15906;52.046;4.724;2023-07-31T04:14:49;16.60;99.90
27540;DHT22;15906;52.046;4.724;2023-07-31T04:17:15;16.70;99.90
27540;DHT22;15906;52.046;4.724;2023-07-31T04:19:41;16.60;99.90
27540;DHT22;15906;52.046;4.724;2023-07-31T04:22:06;16.60;99.90
27540;DHT22;15906;52.046;4.724;2023-07-31T04:24:32;16.60;99.90
27540;DHT22;15906;52.046;4.724;2023-07-31T04:26:57;16.60;99.90
27540;DHT22;15906;52.046;4.724;2023-07-31T04:29:23;16.60;99.90
27540;DHT22;15906;52.046;4.724;2023-07-31T04:31:49;16.50;99.90
27540;DHT22;15906;52.046;4.724;2023-07-31T04:34:14;16.40;99.90
27540;DHT22;15906;52.046;4.724;2023-07-31T04:36:40;16.40;99.90
27540;DHT22;15906;52.046;4.724;2023-07-31T04:39:06;16.50;99.90
27540;DHT22;15906;52.046;4.724;2023-07-31T04:41:31;16.50;99.90
27540;DHT22;15906;52.046;4.724;2023-07-31T04:43:57;16.40;99.90
27540;DHT22;15906;52.046;4.724;2023-07-31T04:46:22;16.50;99.90
27540;DHT22;15906;52.046;4.724;2023-07-31T04:48:48;16.40;99.90
27540;DHT22;15906;52.046;4.724;2023-07-31T04:51:13;16.50;99.90
27540;DHT22;15906;52.046;4.724;2023-07-31T04:53:39;16.40;99.90
27540;DHT22;15906;52.046;4.724;2023-07-31T04:56:04;16.40;99.90
27540;DHT22;15906;52.046;4.724;2023-07-31T04:58:30;16.40;99.90
27540;DHT22;15906;52.046;4.724;2023-07-31T05:00:55;16.40;99.90
27540;DHT22;15906;52.046;4.724;2023-07-31T05:03:21;16.40;99.90
27540;DHT22;15906;52.046;4.724;2023-07-31T05:05:47;16.30;99.90
27540;DHT22;15906;52.046;4.724;2023-07-31T05:08:12;16.40;99.90
27540;DHT22;15906;52.046;4.724;2023-07-31T05:10:38;16.30;99.90
27540;DHT22;15906;52.046;4.724;2023-07-31T05:13:04;16.40;99.90
27540;DHT22;15906;52.046;4.724;2023-07-31T05:15:29;16.40;99.90
27540;DHT22;15906;52.046;4.724;2023-07-31T05:17:55;16.40;99.90
27540;DHT22;15906;52.046;4.724;2023-07-31T05:20:21;16.40;99.90
27540;DHT22;15906;52.046;4.724;2023-07-31T05:22:47;16.40;99.90
27540;DHT22;15906;52.046;4.724;2023-07-31T05:25:12;16.40;99.90
27540;DHT22;15906;52.046;4.724;2023-07-31T05:27:38;16.30;99.90
27540;DHT22;15906;52.046;4.724;2023-07-31T05:30:04;16.40;99.90
27540;DHT22;15906;52.046;4.724;2023-07-31T05:32:30;16.40;99.90
27540;DHT22;15906;52.046;4.724;2023-07-31T05:34:56;16.40;99.90
27540;DHT22;15906;52.046;4.724;2023-07-31T05:37:21;16.30;99.90
27540;DHT22;15906;52.046;4.724;2023-07-31T05:39:47;16.30;99.90
27540;DHT22;15906;52.046;4.724;2023-07-31T05:42:12;16.40;99.90
27540;DHT22;15906;52.046;4.724;2023-07-31T05:44:38;16.30;99.90
27540;DHT22;15906;52.046;4.724;2023-07-31T05:47:04;16.30;99.90
27540;DHT22;15906;52.046;4.724;2023-07-31T05:49:30;16.40;99.90
27540;DHT22;15906;52.046;4.724;2023-07-31T05:51:55;16.50;99.90
27540;DHT22;15906;52.046;4.724;2023-07-31T05:54:21;16.50;99.90
27540;DHT22;15906;52.046;4.724;2023-07-31T05:56:46;16.30;99.90
27540;DHT22;15906;52.046;4.724;2023-07-31T05:59:12;16.50;99.90
27540;DHT22;15906;52.046;4.724;2023-07-31T06:01:38;16.60;99.90
27540;DHT22;15906;52.046;4.724;2023-07-31T06:04:04;16.60;99.90
27540;DHT22;15906;52.046;4.724;2023-07-31T06:06:30;16.60;99.90
27540;DHT22;15906;52.046;4.724;2023-07-31T06:08:55;16.60;99.90
27540;DHT22;15906;52.046;4.724;2023-07-31T06:11:21;16.70;99.90
27540;DHT22;15906;52.046;4.724;2023-07-31T06:13:47;16.70;99.90
27540;DHT22;15906;52.046;4.724;2023-07-31T06:16:14;16.60;99.90
27540;DHT22;15906;52.046;4.724;2023-07-31T06:18:41;16.60;99.90
27540;DHT22;15906;52.046;4.724;2023-07-31T06:21:06;16.70;99.90
27540;DHT22;15906;52.046;4.724;2023-07-31T06:23:32;16.60;99.90
27540;DHT22;15906;52.046;4.724;2023-07-31T06:25:57;16.70;99.90
27540;DHT22;15906;52.046;4.724;2023-07-31T06:28:30;16.70;99.90
27540;DHT22;15906;52.046;4.724;2023-07-31T06:30:56;16.70;99.90
27540;DHT22;15906;52.046;4.724;2023-07-31T06:33:22;16.80;99.90
27540;DHT22;15906;52.046;4.724;2023-07-31T06:35:47;16.80;99.90
27540;DHT22;15906;52.046;4.724;2023-07-31T06:38:13;16.90;99.90
27540;DHT22;15906;52.046;4.724;2023-07-31T06:40:38;16.90;99.90
27540;DHT22;15906;52.046;4.724;2023-07-31T06:43:04;16.90;99.90
27540;DHT22;15906;52.046;4.724;2023-07-31T06:45:36;16.90;99.90
27540;DHT22;15906;52.046;4.724;2023-07-31T06:48:03;16.90;99.90
27540;DHT22;15906;52.046;4.724;2023-07-31T06:50:32;16.90;99.90
27540;DHT22;15906;52.046;4.724;2023-07-31T06:52:58;16.90;99.90
27540;DHT22;15906;52.046;4.724;2023-07-31T06:55:24;17.00;99.90
27540;DHT22;15906;52.046;4.724;2023-07-31T06:57:51;17.00;99.90
27540;DHT22;15906;52.046;4.724;2023-07-31T07:00:18;17.10;99.90
27540;DHT22;15906;52.046;4.724;2023-07-31T07:02:44;17.00;99.90
27540;DHT22;15906;52.046;4.724;2023-07-31T07:05:09;17.00;99.90
27540;DHT22;15906;52.046;4.724;2023-07-31T07:07:36;17.00;99.90
27540;DHT22;15906;52.046;4.724;2023-07-31T07:10:02;17.00;99.90
27540;DHT22;15906;52.046;4.724;2023-07-31T07:12:29;17.00;99.90
27540;DHT22;15906;52.046;4.724;2023-07-31T07:14:55;17.00;99.90
27540;DHT22;15906;52.046;4.724;2023-07-31T07:17:22;17.00;99.90
27540;DHT22;15906;52.046;4.724;2023-07-31T07:19:48;17.10;99.90
27540;DHT22;15906;52.046;4.724;2023-07-31T07:22:14;17.10;99.90
27540;DHT22;15906;52.046;4.724;2023-07-31T07:24:40;17.20;99.90
27540;DHT22;15906;52.046;4.724;2023-07-31T07:27:05;17.30;99.90
27540;DHT22;15906;52.046;4.724;2023-07-31T07:29:31;17.20;99.90
27540;DHT22;15906;52.046;4.724;2023-07-31T07:31:57;17.30;99.90
27540;DHT22;15906;52.046;4.724;2023-07-31T07:34:25;17.30;99.90
27540;DHT22;15906;52.046;4.724;2023-07-31T07:36:51;17.30;99.90
27540;DHT22;15906;52.046;4.724;2023-07-31T07:39:16;17.30;99.90
27540;DHT22;15906;52.046;4.724;2023-07-31T07:41:42;17.30;99.90
27540;DHT22;15906;52.046;4.724;2023-07-31T07:44:08;17.40;99.90
27540;DHT22;15906;52.046;4.724;2023-07-31T07:46:34;17.40;99.90
27540;DHT22;15906;52.046;4.724;2023-07-31T07:48:59;17.40;99.90
27540;DHT22;15906;52.046;4.724;2023-07-31T07:51:25;17.40;99.90
27540;DHT22;15906;52.046;4.724;2023-07-31T07:53:50;17.40;99.90
27540;DHT22;15906;52.046;4.724;2023-07-31T07:56:16;17.50;99.90
27540;DHT22;15906;52.046;4.724;2023-07-31T07:58:42;17.40;99.90
27540;DHT22;15906;52.046;4.724;2023-07-31T08:01:07;17.60;99.90
27540;DHT22;15906;52.046;4.724;2023-07-31T08:03:33;17.60;99.90
27540;DHT22;15906;52.046;4.724;2023-07-31T08:05:59;17.50;99.90
27540;DHT22;15906;52.046;4.724;2023-07-31T08:08:25;17.60;99.90
27540;DHT22;15906;52.046;4.724;2023-07-31T08:10:51;17.70;99.90
27540;DHT22;15906;52.046;4.724;2023-07-31T08:13:16;17.60;99.90
27540;DHT22;15906;52.046;4.724;2023-07-31T08:15:42;17.60;99.90
27540;DHT22;15906;52.046;4.724;2023-07-31T08:18:11;17.70;99.90
27540;DHT22;15906;52.046;4.724;2023-07-31T08:20:37;17.80;99.90
27540;DHT22;15906;52.046;4.724;2023-07-31T08:23:03;17.80;99.90
27540;DHT22;15906;52.046;4.724;2023-07-31T08:25:29;17.80;99.90
27540;DHT22;15906;52.046;4.724;2023-07-31T08:27:55;17.80;99.90
27540;DHT22;15906;52.046;4.724;2023-07-31T08:30:21;17.80;99.90
27540;DHT22;15906;52.046;4.724;2023-07-31T08:32:47;17.70;99.90
27540;DHT22;15906;52.046;4.724;2023-07-31T08:35:12;17.60;99.90
27540;DHT22;15906;52.046;4.724;2023-07-31T08:37:38;17.80;99.90
27540;DHT22;15906;52.046;4.724;2023-07-31T08:40:04;17.80;99.90
27540;DHT22;15906;52.046;4.724;2023-07-31T08:42:31;17.80;99.90
27540;DHT22;15906;52.046;4.724;2023-07-31T08:44:56;17.80;99.90
27540;DHT22;15906;52.046;4.724;2023-07-31T08:47:23;17.80;99.90
27540;DHT22;15906;52.046;4.724;2023-07-31T08:49:49;17.90;99.90
27540;DHT22;15906;52.046;4.724;2023-07-31T08:52:16;18.00;99.90
27540;DHT22;15906;52.046;4.724;2023-07-31T08:54:42;18.00;99.90
27540;DHT22;15906;52.046;4.724;2023-07-31T08:57:07;17.90;99.90
27540;DHT22;15906;52.046;4.724;2023-07-31T08:59:35;17.90;99.90
27540;DHT22;15906;52.046;4.724;2023-07-31T09:02:05;17.90;99.90
27540;DHT22;15906;52.046;4.724;2023-07-31T09:04:32;17.90;99.90
27540;DHT22;15906;52.046;4.724;2023-07-31T09:07:02;18.00;99.90
27540;DHT22;15906;52.046;4.724;2023-07-31T09:09:30;18.00;99.90
27540;DHT22;15906;52.046;4.724;2023-07-31T09:11:57;18.00;99.90
27540;DHT22;15906;52.046;4.724;2023-07-31T09:14:25;18.20;99.90
27540;DHT22;15906;52.046;4.724;2023-07-31T09:16:57;18.20;99.90
27540;DHT22;15906;52.046;4.724;2023-07-31T09:19:43;18.10;99.90
27540;DHT22;15906;52.046;4.724;2023-07-31T09:22:08;18.10;99.90
27540;DHT22;15906;52.046;4.724;2023-07-31T09:24:34;18.10;99.90
27540;DHT22;15906;52.046;4.724;2023-07-31T09:27:01;18.10;99.90
27540;DHT22;15906;52.046;4.724;2023-07-31T09:29:28;18.00;99.90
27540;DHT22;15906;52.046;4.724;2023-07-31T09:31:55;18.10;99.90
27540;DHT22;15906;52.046;4.724;2023-07-31T09:34:36;18.20;99.90
27540;DHT22;15906;52.046;4.724;2023-07-31T09:37:03;18.20;99.90
27540;DHT22;15906;52.046;4.724;2023-07-31T09:39:30;18.30;99.90
27540;DHT22;15906;52.046;4.724;2023-07-31T09:41:56;18.30;99.90
27540;DHT22;15906;52.046;4.724;2023-07-31T09:44:37;18.30;99.90
27540;DHT22;15906;52.046;4.724;2023-07-31T09:47:03;18.30;99.90
27540;DHT22;15906;52.046;4.724;2023-07-31T09:49:28;18.30;99.90
27540;DHT22;15906;52.046;4.724;2023-07-31T09:51:54;18.20;99.90
27540;DHT22;15906;52.046;4.724;2023-07-31T09:54:20;18.10;99.90
27540;DHT22;15906;52.046;4.724;2023-07-31T09:56:47;18.20;99.90
27540;DHT22;15906;52.046;4.724;2023-07-31T09:59:16;18.20;99.90
27540;DHT22;15906;52.046;4.724;2023-07-31T10:01:43;18.30;99.90
27540;DHT22;15906;52.046;4.724;2023-07-31T10:04:10;18.40;99.90
27540;DHT22;15906;52.046;4.724;2023-07-31T10:06:37;18.40;99.90
27540;DHT22;15906;52.046;4.724;2023-07-31T10:09:08;18.40;99.90
27540;DHT22;15906;52.046;4.724;2023-07-31T10:11:38;18.50;99.90
27540;DHT22;15906;52.046;4.724;2023-07-31T10:14:07;18.40;99.90
27540;DHT22;15906;52.046;4.724;2023-07-31T10:16:34;18.50;99.90
27540;DHT22;15906;52.046;4.724;2023-07-31T10:19:00;18.50;99.90
27540;DHT22;15906;52.046;4.724;2023-07-31T10:21:27;18.60;99.90
27540;DHT22;15906;52.046;4.724;2023-07-31T10:23:53;18.70;99.90
27540;DHT22;15906;52.046;4.724;2023-07-31T10:26:20;18.80;99.90
27540;DHT22;15906;52.046;4.724;2023-07-31T10:28:48;18.80;99.90
27540;DHT22;15906;52.046;4.724;2023-07-31T10:31:13;18.70;99.90
27540;DHT22;15906;52.046;4.724;2023-07-31T10:33:40;18.70;99.90
27540;DHT22;15906;52.046;4.724;2023-07-31T10:36:20;18.70;99.90
27540;DHT22;15906;52.046;4.724;2023-07-31T10:38:48;18.70;99.90
27540;DHT22;15906;52.046;4.724;2023-07-31T10:41:14;18.70;99.90
27540;DHT22;15906;52.046;4.724;2023-07-31T10:43:40;18.70;99.90
27540;DHT22;15906;52.046;4.724;2023-07-31T10:46:12;18.70;99.90
27540;DHT22;15906;52.046;4.724;2023-07-31T10:48:39;18.60;99.90
27540;DHT22;15906;52.046;4.724;2023-07-31T10:51:08;18.70;99.90
27540;DHT22;15906;52.046;4.724;2023-07-31T10:53:35;18.70;99.90
27540;DHT22;15906;52.046;4.724;2023-07-31T10:56:05;18.80;99.90
27540;DHT22;15906;52.046;4.724;2023-07-31T10:58:31;18.70;99.90
27540;DHT22;15906;52.046;4.724;2023-07-31T11:01:02;18.90;99.90
27540;DHT22;15906;52.046;4.724;2023-07-31T11:03:48;18.80;99.90
27540;DHT22;15906;52.046;4.724;2023-07-31T11:06:15;18.90;99.90
27540;DHT22;15906;52.046;4.724;2023-07-31T11:08:46;18.80;99.90
27540;DHT22;15906;52.046;4.724;2023-07-31T11:11:14;18.90;99.90
27540;DHT22;15906;52.046;4.724;2023-07-31T11:13:48;18.90;99.90
27540;DHT22;15906;52.046;4.724;2023-07-31T11:16:15;19.00;99.90
27540;DHT22;15906;52.046;4.724;2023-07-31T11:18:42;19.00;99.90
27540;DHT22;15906;52.046;4.724;2023-07-31T11:21:19;19.00;99.90
27540;DHT22;15906;52.046;4.724;2023-07-31T11:23:49;19.10;99.90
27540;DHT22;15906;52.046;4.724;2023-07-31T11:26:16;19.10;99.90
27540;DHT22;15906;52.046;4.724;2023-07-31T11:28:42;19.20;99.90
27540;DHT22;15906;52.046;4.724;2023-07-31T11:31:09;19.40;99.90
27540;DHT22;15906;52.046;4.724;2023-07-31T11:33:35;19.30;99.90
27540;DHT22;15906;52.046;4.724;2023-07-31T11:36:01;19.30;99.90
27540;DHT22;15906;52.046;4.724;2023-07-31T11:40:56;19.20;99.90
27540;DHT22;15906;52.046;4.724;2023-07-31T11:43:23;19.20;99.90
27540;DHT22;15906;52.046;4.724;2023-07-31T11:45:50;19.30;99.90
27540;DHT22;15906;52.046;4.724;2023-07-31T11:48:23;19.40;99.90
27540;DHT22;15906;52.046;4.724;2023-07-31T11:50:50;19.20;99.90
27540;DHT22;15906;52.046;4.724;2023-07-31T11:53:19;19.20;99.90
27540;DHT22;15906;52.046;4.724;2023-07-31T11:55:46;19.20;99.90
27540;DHT22;15906;52.046;4.724;2023-07-31T11:58:12;19.20;99.90
27540;DHT22;15906;52.046;4.724;2023-07-31T12:00:39;19.20;99.90
27540;DHT22;15906;52.046;4.724;2023-07-31T12:03:04;19.20;99.90
27540;DHT22;15906;52.046;4.724;2023-07-31T12:05:30;19.30;99.90
27540;DHT22;15906;52.046;4.724;2023-07-31T12:07:55;19.30;99.90
27540;DHT22;15906;52.046;4.724;2023-07-31T12:10:25;19.20;99.90
27540;DHT22;15906;52.046;4.724;2023-07-31T12:13:06;19.20;99.90
27540;DHT22;15906;52.046;4.724;2023-07-31T12:15:43;19.30;99.90
27540;DHT22;15906;52.046;4.724;2023-07-31T12:18:14;19.40;99.90
27540;DHT22;15906;52.046;4.724;2023-07-31T12:20:45;19.30;99.90
27540;DHT22;15906;52.046;4.724;2023-07-31T12:25:40;19.40;99.90
27540;DHT22;15906;52.046;4.724;2023-07-31T12:28:07;19.40;99.90
27540;DHT22;15906;52.046;4.724;2023-07-31T12:30:37;19.30;99.90
27540;DHT22;15906;52.046;4.724;2023-07-31T12:33:15;19.40;99.90
27540;DHT22;15906;52.046;4.724;2023-07-31T12:35:44;19.50;99.90
27540;DHT22;15906;52.046;4.724;2023-07-31T12:38:12;19.50;99.90
27540;DHT22;15906;52.046;4.724;2023-07-31T12:40:39;19.50;99.90
27540;DHT22;15906;52.046;4.724;2023-07-31T12:43:06;19.50;99.90
27540;DHT22;15906;52.046;4.724;2023-07-31T12:45:31;19.50;99.90
27540;DHT22;15906;52.046;4.724;2023-07-31T12:47:58;19.20;99.90
27540;DHT22;15906;52.046;4.724;2023-07-31T12:50:24;19.30;99.90
27540;DHT22;15906;52.046;4.724;2023-07-31T12:52:50;19.20;99.90
27540;DHT22;15906;52.046;4.724;2023-07-31T12:55:16;19.30;99.90
27540;DHT22;15906;52.046;4.724;2023-07-31T12:57:43;19.40;99.90
27540;DHT22;15906;52.046;4.724;2023-07-31T13:00:09;19.50;99.90
27540;DHT22;15906;52.046;4.724;2023-07-31T13:02:35;19.60;99.90
27540;DHT22;15906;52.046;4.724;2023-07-31T13:05:00;19.70;99.90
27540;DHT22;15906;52.046;4.724;2023-07-31T13:07:26;19.90;99.90
27540;DHT22;15906;52.046;4.724;2023-07-31T13:09:52;20.00;99.90
27540;DHT22;15906;52.046;4.724;2023-07-31T13:12:17;20.00;99.90
27540;DHT22;15906;52.046;4.724;2023-07-31T13:14:43;20.00;99.90
27540;DHT22;15906;52.046;4.724;2023-07-31T13:17:08;19.90;99.90
27540;DHT22;15906;52.046;4.724;2023-07-31T13:19:34;19.80;99.90
27540;DHT22;15906;52.046;4.724;2023-07-31T13:21:59;19.70;99.90
27540;DHT22;15906;52.046;4.724;2023-07-31T13:24:25;19.70;99.90
27540;DHT22;15906;52.046;4.724;2023-07-31T13:26:51;19.60;99.90
27540;DHT22;15906;52.046;4.724;2023-07-31T13:29:16;19.60;99.90
27540;DHT22;15906;52.046;4.724;2023-07-31T13:31:42;19.80;99.90
27540;DHT22;15906;52.046;4.724;2023-07-31T13:34:07;19.90;99.90
27540;DHT22;15906;52.046;4.724;2023-07-31T13:36:33;20.00;99.90
27540;DHT22;15906;52.046;4.724;2023-07-31T13:38:59;20.00;99.90
27540;DHT22;15906;52.046;4.724;2023-07-31T13:41:26;19.90;99.90
27540;DHT22;15906;52.046;4.724;2023-07-31T13:43:51;19.90;99.90
27540;DHT22;15906;52.046;4.724;2023-07-31T13:46:17;19.70;99.90
27540;DHT22;15906;52.046;4.724;2023-07-31T13:48:42;19.60;99.90
27540;DHT22;15906;52.046;4.724;2023-07-31T13:51:08;19.60;99.90
27540;DHT22;15906;52.046;4.724;2023-07-31T13:53:33;19.50;99.90
27540;DHT22;15906;52.046;4.724;2023-07-31T13:55:59;19.40;99.90
27540;DHT22;15906;52.046;4.724;2023-07-31T13:58:24;19.40;99.90
27540;DHT22;15906;52.046;4.724;2023-07-31T14:00:50;19.30;99.90
27540;DHT22;15906;52.046;4.724;2023-07-31T14:03:15;19.40;99.90
27540;DHT22;15906;52.046;4.724;2023-07-31T14:05:41;19.50;99.90
27540;DHT22;15906;52.046;4.724;2023-07-31T14:08:06;19.50;99.90
27540;DHT22;15906;52.046;4.724;2023-07-31T14:10:32;19.50;99.90
27540;DHT22;15906;52.046;4.724;2023-07-31T14:12:58;19.50;99.90
27540;DHT22;15906;52.046;4.724;2023-07-31T14:15:23;19.50;99.90
27540;DHT22;15906;52.046;4.724;2023-07-31T14:17:49;19.40;99.90
27540;DHT22;15906;52.046;4.724;2023-07-31T14:20:14;19.40;99.90
27540;DHT22;15906;52.046;4.724;2023-07-31T14:22:40;19.40;99.90
27540;DHT22;15906;52.046;4.724;2023-07-31T14:25:05;19.40;99.90
27540;DHT22;15906;52.046;4.724;2023-07-31T14:27:31;19.20;99.90
27540;DHT22;15906;52.046;4.724;2023-07-31T14:29:57;19.20;99.90
27540;DHT22;15906;52.046;4.724;2023-07-31T14:32:23;19.10;99.90
27540;DHT22;15906;52.046;4.724;2023-07-31T14:34:50;19.20;99.90
27540;DHT22;15906;52.046;4.724;2023-07-31T14:37:16;19.20;99.90
27540;DHT22;15906;52.046;4.724;2023-07-31T14:39:41;19.10;99.90
27540;DHT22;15906;52.046;4.724;2023-07-31T14:42:07;19.00;99.90
27540;DHT22;15906;52.046;4.724;2023-07-31T14:44:32;19.10;99.90
27540;DHT22;15906;52.046;4.724;2023-07-31T14:46:58;19.00;99.90
27540;DHT22;15906;52.046;4.724;2023-07-31T14:49:23;19.10;99.90
27540;DHT22;15906;52.046;4.724;2023-07-31T14:51:49;19.00;99.90
27540;DHT22;15906;52.046;4.724;2023-07-31T14:54:15;19.00;99.90
27540;DHT22;15906;52.046;4.724;2023-07-31T14:56:40;18.90;99.90
27540;DHT22;15906;52.046;4.724;2023-07-31T14:59:06;18.90;99.90
27540;DHT22;15906;52.046;4.724;2023-07-31T15:01:33;18.90;99.90
27540;DHT22;15906;52.046;4.724;2023-07-31T15:03:59;18.90;99.90
27540;DHT22;15906;52.046;4.724;2023-07-31T15:06:24;18.90;99.90
27540;DHT22;15906;52.046;4.724;2023-07-31T15:08:50;18.90;99.90
27540;DHT22;15906;52.046;4.724;2023-07-31T15:11:15;18.80;99.90
27540;DHT22;15906;52.046;4.724;2023-07-31T15:13:41;18.90;99.90
27540;DHT22;15906;52.046;4.724;2023-07-31T15:16:07;18.80;99.90
27540;DHT22;15906;52.046;4.724;2023-07-31T15:18:32;18.80;99.90
27540;DHT22;15906;52.046;4.724;2023-07-31T15:20:58;18.80;99.90
27540;DHT22;15906;52.046;4.724;2023-07-31T15:23:23;18.70;99.90
27540;DHT22;15906;52.046;4.724;2023-07-31T15:25:49;18.70;99.90
27540;DHT22;15906;52.046;4.724;2023-07-31T15:28:14;18.70;99.90
27540;DHT22;15906;52.046;4.724;2023-07-31T15:30:40;18.70;99.90
27540;DHT22;15906;52.046;4.724;2023-07-31T15:33:06;18.70;99.90
27540;DHT22;15906;52.046;4.724;2023-07-31T15:35:32;18.70;99.90